メインページ
METAR-TAF:

METAR-TAF

空港 :

テヘラン, イラン

メヘラーバード国際空港

緯度: 35-41N, 経度: 051-21E, 海抜: 1204m

現時点の気象観測

当レポートは22分前の20:30(UTC)に作成
西/北西の風 8kt
気温 3°C
湿度 48%
気圧 1022 hPa
視程10km以上
1,500メートル以下は雲なし、積乱雲なし

METAR: OIII 112030Z 29008KT CAVOK 03/M07 Q1022 A3019 NOSIG

時間: 00:22 (20:52 UTC)

予報

当レポートは3時間22分前の17:30(UTC)に作成
予報は11日の 18時(UTC)から 12日の 24時(UTC)まで有効
東/南東の風 8kt
視程: 7000m
11日の 18時(UTC)から 11日の 21時(UTC)まで一時的に
西/北西の風 17kt
12日の 09時(UTC)から 12日の 13時(UTC)まで一時的に
西/北西の風 17kt

TAF: OIII 111730Z 1118/1224 11004MPS 7000 NSC TEMPO 1118/1121 29009MPS TEMPO 1209/1213 29009MPS

4,000以上の空港の気象観測と天気予報(METAR報とTAF報)

利用可能な観測所は地図上に黄色い丸と赤い丸で示す。

丸の上にカーソルを重ねると観測所名を参照できる。

次にクリックすると気象観測と天気予報を参照できる。

マップの切り替え:黒色「×」印の緑ボタンをクリックして拡大、「-」印の緑ボタンをクリックして縮小、緑色の三角印をクリックして隣りの地図に切り替え


METAR-TAF: